sensor_id;sensor_type;location;lat;lon;timestamp;P1;durP1;ratioP1;P2;durP2;ratioP2
4650;SDS011;2338;49.602;8.722;2023-02-11T00:00:27;44.22;;;29.58;;
4650;SDS011;2338;49.602;8.722;2023-02-11T00:03:13;44.63;;;29.40;;
4650;SDS011;2338;49.602;8.722;2023-02-11T00:06:01;53.50;;;32.10;;
4650;SDS011;2338;49.602;8.722;2023-02-11T00:08:48;45.97;;;30.30;;
4650;SDS011;2338;49.602;8.722;2023-02-11T00:11:33;43.63;;;30.58;;
4650;SDS011;2338;49.602;8.722;2023-02-11T00:14:19;47.67;;;30.30;;
4650;SDS011;2338;49.602;8.722;2023-02-11T00:17:05;44.75;;;31.77;;
4650;SDS011;2338;49.602;8.722;2023-02-11T00:19:50;48.40;;;31.75;;
4650;SDS011;2338;49.602;8.722;2023-02-11T00:22:37;45.05;;;31.20;;
4650;SDS011;2338;49.602;8.722;2023-02-11T00:25:23;45.75;;;31.05;;
4650;SDS011;2338;49.602;8.722;2023-02-11T00:28:08;48.83;;;31.50;;
4650;SDS011;2338;49.602;8.722;2023-02-11T00:30:55;46.85;;;31.70;;
4650;SDS011;2338;49.602;8.722;2023-02-11T00:33:41;48.15;;;29.08;;
4650;SDS011;2338;49.602;8.722;2023-02-11T00:36:28;47.00;;;30.05;;
4650;SDS011;2338;49.602;8.722;2023-02-11T00:39:15;50.20;;;30.73;;
4650;SDS011;2338;49.602;8.722;2023-02-11T00:42:01;52.35;;;30.52;;
4650;SDS011;2338;49.602;8.722;2023-02-11T00:44:46;48.97;;;31.52;;
4650;SDS011;2338;49.602;8.722;2023-02-11T00:47:32;46.45;;;30.45;;
4650;SDS011;2338;49.602;8.722;2023-02-11T00:50:18;44.95;;;28.95;;
4650;SDS011;2338;49.602;8.722;2023-02-11T00:53:04;40.65;;;27.85;;
4650;SDS011;2338;49.602;8.722;2023-02-11T00:55:51;46.95;;;30.23;;
4650;SDS011;2338;49.602;8.722;2023-02-11T00:58:37;46.03;;;29.15;;
4650;SDS011;2338;49.602;8.722;2023-02-11T01:01:22;45.20;;;29.65;;
4650;SDS011;2338;49.602;8.722;2023-02-11T01:04:08;43.78;;;30.33;;
4650;SDS011;2338;49.602;8.722;2023-02-11T01:06:54;40.67;;;27.30;;
4650;SDS011;2338;49.602;8.722;2023-02-11T01:09:40;48.05;;;30.40;;
4650;SDS011;2338;49.602;8.722;2023-02-11T01:12:27;45.35;;;30.33;;
4650;SDS011;2338;49.602;8.722;2023-02-11T01:15:13;43.72;;;30.73;;
4650;SDS011;2338;49.602;8.722;2023-02-11T01:17:59;53.30;;;30.42;;
4650;SDS011;2338;49.602;8.722;2023-02-11T01:20:45;48.25;;;31.60;;
4650;SDS011;2338;49.602;8.722;2023-02-11T01:23:30;49.28;;;30.67;;
4650;SDS011;2338;49.602;8.722;2023-02-11T01:26:17;45.63;;;29.50;;
4650;SDS011;2338;49.602;8.722;2023-02-11T01:29:04;43.47;;;29.05;;
4650;SDS011;2338;49.602;8.722;2023-02-11T01:31:51;45.33;;;29.35;;
4650;SDS011;2338;49.602;8.722;2023-02-11T01:34:37;53.90;;;32.60;;
4650;SDS011;2338;49.602;8.722;2023-02-11T01:37:22;50.03;;;31.05;;
4650;SDS011;2338;49.602;8.722;2023-02-11T01:40:10;49.97;;;35.08;;
4650;SDS011;2338;49.602;8.722;2023-02-11T01:42:58;47.28;;;34.38;;
4650;SDS011;2338;49.602;8.722;2023-02-11T01:45:56;51.67;;;33.38;;
4650;SDS011;2338;49.602;8.722;2023-02-11T01:48:45;39.88;;;28.70;;
4650;SDS011;2338;49.602;8.722;2023-02-11T01:51:35;54.92;;;33.72;;
4650;SDS011;2338;49.602;8.722;2023-02-11T01:54:25;54.85;;;33.60;;
4650;SDS011;2338;49.602;8.722;2023-02-11T01:57:34;45.08;;;32.72;;
4650;SDS011;2338;49.602;8.722;2023-02-11T02:00:22;53.60;;;33.92;;
4650;SDS011;2338;49.602;8.722;2023-02-11T02:03:12;52.30;;;33.30;;
4650;SDS011;2338;49.602;8.722;2023-02-11T02:06:02;52.08;;;32.60;;
4650;SDS011;2338;49.602;8.722;2023-02-11T02:08:52;61.75;;;34.03;;
4650;SDS011;2338;49.602;8.722;2023-02-11T02:11:42;51.28;;;32.58;;
4650;SDS011;2338;49.602;8.722;2023-02-11T02:14:28;45.15;;;31.90;;
4650;SDS011;2338;49.602;8.722;2023-02-11T02:17:16;52.25;;;32.85;;
4650;SDS011;2338;49.602;8.722;2023-02-11T02:20:18;56.13;;;33.17;;
4650;SDS011;2338;49.602;8.722;2023-02-11T02:23:34;50.55;;;33.47;;
4650;SDS011;2338;49.602;8.722;2023-02-11T02:26:37;49.90;;;33.28;;
4650;SDS011;2338;49.602;8.722;2023-02-11T02:32:57;60.30;;;34.03;;
4650;SDS011;2338;49.602;8.722;2023-02-11T02:35:53;57.25;;;32.13;;
4650;SDS011;2338;49.602;8.722;2023-02-11T02:38:47;52.38;;;33.03;;
4650;SDS011;2338;49.602;8.722;2023-02-11T02:41:38;48.10;;;32.92;;
4650;SDS011;2338;49.602;8.722;2023-02-11T02:44:24;47.65;;;31.52;;
4650;SDS011;2338;49.602;8.722;2023-02-11T02:47:10;47.40;;;31.35;;
4650;SDS011;2338;49.602;8.722;2023-02-11T02:49:57;45.72;;;30.90;;
4650;SDS011;2338;49.602;8.722;2023-02-11T02:52:45;50.17;;;32.67;;
4650;SDS011;2338;49.602;8.722;2023-02-11T02:55:47;49.00;;;32.85;;
4650;SDS011;2338;49.602;8.722;2023-02-11T02:58:49;49.22;;;32.95;;
4650;SDS011;2338;49.602;8.722;2023-02-11T03:01:48;47.92;;;33.05;;
4650;SDS011;2338;49.602;8.722;2023-02-11T03:04:41;48.65;;;34.83;;
4650;SDS011;2338;49.602;8.722;2023-02-11T03:07:36;51.33;;;33.13;;
4650;SDS011;2338;49.602;8.722;2023-02-11T03:10:26;54.20;;;33.08;;
4650;SDS011;2338;49.602;8.722;2023-02-11T03:13:13;52.00;;;35.42;;
4650;SDS011;2338;49.602;8.722;2023-02-11T03:16:03;51.05;;;34.08;;
4650;SDS011;2338;49.602;8.722;2023-02-11T03:18:55;56.30;;;34.47;;
4650;SDS011;2338;49.602;8.722;2023-02-11T03:21:46;52.17;;;34.00;;
4650;SDS011;2338;49.602;8.722;2023-02-11T03:24:36;49.70;;;31.90;;
4650;SDS011;2338;49.602;8.722;2023-02-11T03:27:25;45.88;;;30.30;;
4650;SDS011;2338;49.602;8.722;2023-02-11T03:30:16;42.97;;;30.20;;
4650;SDS011;2338;49.602;8.722;2023-02-11T03:33:06;49.05;;;33.45;;
4650;SDS011;2338;49.602;8.722;2023-02-11T03:35:57;46.55;;;30.52;;
4650;SDS011;2338;49.602;8.722;2023-02-11T03:38:47;44.70;;;29.45;;
4650;SDS011;2338;49.602;8.722;2023-02-11T03:41:38;44.28;;;30.58;;
4650;SDS011;2338;49.602;8.722;2023-02-11T03:44:27;45.33;;;29.10;;
4650;SDS011;2338;49.602;8.722;2023-02-11T03:47:17;45.85;;;29.05;;
4650;SDS011;2338;49.602;8.722;2023-02-11T03:50:07;49.58;;;30.60;;
4650;SDS011;2338;49.602;8.722;2023-02-11T03:52:55;48.78;;;31.27;;
4650;SDS011;2338;49.602;8.722;2023-02-11T03:55:42;47.15;;;31.10;;
4650;SDS011;2338;49.602;8.722;2023-02-11T03:58:31;44.92;;;27.67;;
4650;SDS011;2338;49.602;8.722;2023-02-11T04:01:16;38.35;;;26.00;;
4650;SDS011;2338;49.602;8.722;2023-02-11T04:04:02;48.03;;;29.50;;
4650;SDS011;2338;49.602;8.722;2023-02-11T04:06:48;48.00;;;32.60;;
4650;SDS011;2338;49.602;8.722;2023-02-11T04:09:34;50.83;;;31.95;;
4650;SDS011;2338;49.602;8.722;2023-02-11T04:12:19;47.70;;;33.00;;
4650;SDS011;2338;49.602;8.722;2023-02-11T04:15:07;46.42;;;32.63;;
4650;SDS011;2338;49.602;8.722;2023-02-11T04:17:52;52.75;;;36.63;;
4650;SDS011;2338;49.602;8.722;2023-02-11T04:20:38;47.00;;;33.15;;
4650;SDS011;2338;49.602;8.722;2023-02-11T04:23:24;44.58;;;31.50;;
4650;SDS011;2338;49.602;8.722;2023-02-11T04:26:10;47.42;;;30.48;;
4650;SDS011;2338;49.602;8.722;2023-02-11T04:28:55;42.78;;;27.98;;
4650;SDS011;2338;49.602;8.722;2023-02-11T04:31:42;36.47;;;23.52;;
4650;SDS011;2338;49.602;8.722;2023-02-11T04:34:28;33.60;;;22.42;;
4650;SDS011;2338;49.602;8.722;2023-02-11T04:37:13;34.15;;;22.80;;
4650;SDS011;2338;49.602;8.722;2023-02-11T04:39:59;41.05;;;23.50;;
4650;SDS011;2338;49.602;8.722;2023-02-11T04:42:44;42.33;;;25.85;;
4650;SDS011;2338;49.602;8.722;2023-02-11T04:45:30;36.95;;;23.05;;
4650;SDS011;2338;49.602;8.722;2023-02-11T04:48:17;36.58;;;22.73;;
4650;SDS011;2338;49.602;8.722;2023-02-11T04:51:03;36.47;;;21.60;;
4650;SDS011;2338;49.602;8.722;2023-02-11T04:53:49;31.83;;;21.17;;
4650;SDS011;2338;49.602;8.722;2023-02-11T04:56:35;29.73;;;20.30;;
4650;SDS011;2338;49.602;8.722;2023-02-11T04:59:21;32.33;;;21.15;;
4650;SDS011;2338;49.602;8.722;2023-02-11T05:02:07;30.65;;;20.67;;
4650;SDS011;2338;49.602;8.722;2023-02-11T05:04:54;32.05;;;20.05;;
4650;SDS011;2338;49.602;8.722;2023-02-11T05:07:40;34.92;;;20.50;;
4650;SDS011;2338;49.602;8.722;2023-02-11T05:10:26;32.67;;;18.98;;
4650;SDS011;2338;49.602;8.722;2023-02-11T05:13:11;34.78;;;23.38;;
4650;SDS011;2338;49.602;8.722;2023-02-11T05:15:57;31.48;;;20.95;;
4650;SDS011;2338;49.602;8.722;2023-02-11T05:18:43;31.90;;;20.65;;
4650;SDS011;2338;49.602;8.722;2023-02-11T05:21:30;31.05;;;20.27;;
4650;SDS011;2338;49.602;8.722;2023-02-11T05:24:16;36.13;;;21.05;;
4650;SDS011;2338;49.602;8.722;2023-02-11T05:27:02;30.65;;;20.27;;
4650;SDS011;2338;49.602;8.722;2023-02-11T05:29:48;34.20;;;22.65;;
4650;SDS011;2338;49.602;8.722;2023-02-11T05:32:33;34.83;;;21.98;;
4650;SDS011;2338;49.602;8.722;2023-02-11T05:35:19;35.63;;;22.08;;
4650;SDS011;2338;49.602;8.722;2023-02-11T05:38:06;33.78;;;22.50;;
4650;SDS011;2338;49.602;8.722;2023-02-11T05:40:51;37.40;;;22.58;;
4650;SDS011;2338;49.602;8.722;2023-02-11T05:43:37;33.25;;;21.15;;
4650;SDS011;2338;49.602;8.722;2023-02-11T05:46:23;33.03;;;21.20;;
4650;SDS011;2338;49.602;8.722;2023-02-11T05:49:08;35.10;;;23.13;;
4650;SDS011;2338;49.602;8.722;2023-02-11T05:51:54;41.25;;;25.67;;
4650;SDS011;2338;49.602;8.722;2023-02-11T05:54:41;39.72;;;25.65;;
4650;SDS011;2338;49.602;8.722;2023-02-11T05:57:26;36.38;;;25.65;;
4650;SDS011;2338;49.602;8.722;2023-02-11T06:00:13;36.65;;;25.27;;
4650;SDS011;2338;49.602;8.722;2023-02-11T06:02:59;44.97;;;25.33;;
4650;SDS011;2338;49.602;8.722;2023-02-11T06:05:46;35.78;;;24.30;;
4650;SDS011;2338;49.602;8.722;2023-02-11T06:08:32;40.28;;;26.75;;
4650;SDS011;2338;49.602;8.722;2023-02-11T06:11:19;37.70;;;24.85;;
4650;SDS011;2338;49.602;8.722;2023-02-11T06:14:05;42.45;;;25.30;;
4650;SDS011;2338;49.602;8.722;2023-02-11T06:16:51;34.65;;;23.20;;
4650;SDS011;2338;49.602;8.722;2023-02-11T06:19:36;40.30;;;24.75;;
4650;SDS011;2338;49.602;8.722;2023-02-11T06:22:22;37.80;;;23.38;;
4650;SDS011;2338;49.602;8.722;2023-02-11T06:25:09;37.67;;;25.80;;
4650;SDS011;2338;49.602;8.722;2023-02-11T06:27:56;38.45;;;25.48;;
4650;SDS011;2338;49.602;8.722;2023-02-11T06:30:41;50.28;;;33.60;;
4650;SDS011;2338;49.602;8.722;2023-02-11T06:33:27;43.03;;;24.58;;
4650;SDS011;2338;49.602;8.722;2023-02-11T06:36:13;40.03;;;24.95;;
4650;SDS011;2338;49.602;8.722;2023-02-11T06:39:01;38.90;;;24.40;;
4650;SDS011;2338;49.602;8.722;2023-02-11T06:41:46;37.08;;;23.23;;
4650;SDS011;2338;49.602;8.722;2023-02-11T06:44:34;36.53;;;23.65;;
4650;SDS011;2338;49.602;8.722;2023-02-11T06:47:19;41.53;;;24.45;;
4650;SDS011;2338;49.602;8.722;2023-02-11T06:50:06;35.55;;;22.77;;
4650;SDS011;2338;49.602;8.722;2023-02-11T06:52:55;29.42;;;21.80;;
4650;SDS011;2338;49.602;8.722;2023-02-11T06:55:43;35.60;;;23.75;;
4650;SDS011;2338;49.602;8.722;2023-02-11T06:58:28;36.60;;;23.75;;
4650;SDS011;2338;49.602;8.722;2023-02-11T07:01:15;40.80;;;27.60;;
4650;SDS011;2338;49.602;8.722;2023-02-11T07:04:01;43.38;;;28.70;;
4650;SDS011;2338;49.602;8.722;2023-02-11T07:06:46;42.85;;;28.27;;
4650;SDS011;2338;49.602;8.722;2023-02-11T07:09:32;35.28;;;24.33;;
4650;SDS011;2338;49.602;8.722;2023-02-11T07:12:18;40.15;;;25.88;;
4650;SDS011;2338;49.602;8.722;2023-02-11T07:15:04;37.28;;;24.67;;
4650;SDS011;2338;49.602;8.722;2023-02-11T07:17:51;38.28;;;26.35;;
4650;SDS011;2338;49.602;8.722;2023-02-11T07:20:37;40.75;;;26.05;;
4650;SDS011;2338;49.602;8.722;2023-02-11T07:23:22;37.47;;;25.67;;
4650;SDS011;2338;49.602;8.722;2023-02-11T07:26:08;41.75;;;25.30;;
4650;SDS011;2338;49.602;8.722;2023-02-11T07:28:55;47.45;;;28.30;;
4650;SDS011;2338;49.602;8.722;2023-02-11T07:31:40;41.72;;;25.98;;
4650;SDS011;2338;49.602;8.722;2023-02-11T07:34:27;41.72;;;27.45;;
4650;SDS011;2338;49.602;8.722;2023-02-11T07:37:12;43.33;;;27.48;;
4650;SDS011;2338;49.602;8.722;2023-02-11T07:39:58;47.97;;;33.45;;
4650;SDS011;2338;49.602;8.722;2023-02-11T07:42:44;53.33;;;34.90;;
4650;SDS011;2338;49.602;8.722;2023-02-11T07:45:30;51.63;;;32.28;;
4650;SDS011;2338;49.602;8.722;2023-02-11T07:48:15;49.05;;;33.70;;
4650;SDS011;2338;49.602;8.722;2023-02-11T07:51:07;53.10;;;35.55;;
4650;SDS011;2338;49.602;8.722;2023-02-11T07:53:54;53.25;;;38.88;;
4650;SDS011;2338;49.602;8.722;2023-02-11T07:56:41;61.35;;;43.38;;
4650;SDS011;2338;49.602;8.722;2023-02-11T07:59:27;62.90;;;41.97;;
4650;SDS011;2338;49.602;8.722;2023-02-11T08:02:13;61.08;;;38.95;;
4650;SDS011;2338;49.602;8.722;2023-02-11T08:04:58;54.75;;;36.38;;
4650;SDS011;2338;49.602;8.722;2023-02-11T08:07:45;52.45;;;36.53;;
4650;SDS011;2338;49.602;8.722;2023-02-11T08:10:34;50.33;;;35.22;;
4650;SDS011;2338;49.602;8.722;2023-02-11T08:13:19;48.22;;;35.50;;
4650;SDS011;2338;49.602;8.722;2023-02-11T08:16:05;48.72;;;34.25;;
4650;SDS011;2338;49.602;8.722;2023-02-11T08:18:52;42.78;;;27.80;;
4650;SDS011;2338;49.602;8.722;2023-02-11T08:21:40;43.90;;;31.58;;
4650;SDS011;2338;49.602;8.722;2023-02-11T08:24:27;49.42;;;30.42;;
4650;SDS011;2338;49.602;8.722;2023-02-11T08:27:12;44.70;;;30.73;;
4650;SDS011;2338;49.602;8.722;2023-02-11T08:29:58;49.45;;;33.40;;
4650;SDS011;2338;49.602;8.722;2023-02-11T08:32:44;52.78;;;31.73;;
4650;SDS011;2338;49.602;8.722;2023-02-11T08:35:30;31.85;;;22.85;;
4650;SDS011;2338;49.602;8.722;2023-02-11T08:38:15;34.15;;;22.35;;
4650;SDS011;2338;49.602;8.722;2023-02-11T08:41:02;36.30;;;21.92;;
4650;SDS011;2338;49.602;8.722;2023-02-11T08:43:48;33.42;;;21.45;;
4650;SDS011;2338;49.602;8.722;2023-02-11T08:46:34;34.22;;;21.38;;
4650;SDS011;2338;49.602;8.722;2023-02-11T08:49:20;34.75;;;20.65;;
4650;SDS011;2338;49.602;8.722;2023-02-11T08:52:07;31.63;;;20.02;;
4650;SDS011;2338;49.602;8.722;2023-02-11T08:54:52;31.60;;;18.83;;
4650;SDS011;2338;49.602;8.722;2023-02-11T08:57:39;27.98;;;17.45;;
4650;SDS011;2338;49.602;8.722;2023-02-11T09:00:25;28.48;;;19.52;;
4650;SDS011;2338;49.602;8.722;2023-02-11T09:03:11;33.05;;;20.85;;
4650;SDS011;2338;49.602;8.722;2023-02-11T09:05:56;32.38;;;18.70;;
4650;SDS011;2338;49.602;8.722;2023-02-11T09:08:43;24.17;;;17.85;;
4650;SDS011;2338;49.602;8.722;2023-02-11T09:11:30;29.58;;;17.90;;
4650;SDS011;2338;49.602;8.722;2023-02-11T09:14:20;31.10;;;17.98;;
4650;SDS011;2338;49.602;8.722;2023-02-11T09:17:06;31.65;;;20.10;;
4650;SDS011;2338;49.602;8.722;2023-02-11T09:19:52;32.78;;;20.30;;
4650;SDS011;2338;49.602;8.722;2023-02-11T09:22:37;32.47;;;18.95;;
4650;SDS011;2338;49.602;8.722;2023-02-11T09:25:23;32.50;;;19.73;;
4650;SDS011;2338;49.602;8.722;2023-02-11T09:28:09;27.25;;;18.13;;
4650;SDS011;2338;49.602;8.722;2023-02-11T09:30:56;33.97;;;21.40;;
4650;SDS011;2338;49.602;8.722;2023-02-11T09:33:43;30.90;;;19.30;;
4650;SDS011;2338;49.602;8.722;2023-02-11T09:36:32;29.13;;;18.73;;
4650;SDS011;2338;49.602;8.722;2023-02-11T09:39:21;35.15;;;19.65;;
4650;SDS011;2338;49.602;8.722;2023-02-11T09:42:36;29.17;;;19.98;;
4650;SDS011;2338;49.602;8.722;2023-02-11T09:45:27;30.88;;;20.00;;
4650;SDS011;2338;49.602;8.722;2023-02-11T09:48:16;32.08;;;21.23;;
4650;SDS011;2338;49.602;8.722;2023-02-11T09:51:03;30.05;;;20.65;;
4650;SDS011;2338;49.602;8.722;2023-02-11T09:53:57;33.88;;;21.70;;
4650;SDS011;2338;49.602;8.722;2023-02-11T09:56:47;32.70;;;21.60;;
4650;SDS011;2338;49.602;8.722;2023-02-11T09:59:33;35.00;;;22.92;;
4650;SDS011;2338;49.602;8.722;2023-02-11T10:02:19;33.27;;;20.97;;
4650;SDS011;2338;49.602;8.722;2023-02-11T10:05:15;44.00;;;23.65;;
4650;SDS011;2338;49.602;8.722;2023-02-11T10:08:18;35.67;;;22.67;;
4650;SDS011;2338;49.602;8.722;2023-02-11T10:11:11;37.55;;;23.73;;
4650;SDS011;2338;49.602;8.722;2023-02-11T10:14:07;43.10;;;24.50;;
4650;SDS011;2338;49.602;8.722;2023-02-11T10:17:06;37.47;;;23.45;;
4650;SDS011;2338;49.602;8.722;2023-02-11T10:20:03;52.33;;;23.35;;
4650;SDS011;2338;49.602;8.722;2023-02-11T10:22:59;41.17;;;26.08;;
4650;SDS011;2338;49.602;8.722;2023-02-11T10:25:52;36.80;;;22.60;;
4650;SDS011;2338;49.602;8.722;2023-02-11T10:28:39;33.53;;;21.17;;
4650;SDS011;2338;49.602;8.722;2023-02-11T10:31:33;38.40;;;24.00;;
4650;SDS011;2338;49.602;8.722;2023-02-11T10:34:22;39.10;;;22.85;;
4650;SDS011;2338;49.602;8.722;2023-02-11T10:37:08;40.17;;;25.10;;
4650;SDS011;2338;49.602;8.722;2023-02-11T10:39:58;37.93;;;25.27;;
4650;SDS011;2338;49.602;8.722;2023-02-11T10:42:44;36.97;;;23.50;;
4650;SDS011;2338;49.602;8.722;2023-02-11T10:45:33;38.90;;;24.92;;
4650;SDS011;2338;49.602;8.722;2023-02-11T10:48:35;38.08;;;24.00;;
4650;SDS011;2338;49.602;8.722;2023-02-11T10:51:26;45.13;;;23.97;;
4650;SDS011;2338;49.602;8.722;2023-02-11T10:54:16;37.92;;;24.77;;
4650;SDS011;2338;49.602;8.722;2023-02-11T10:57:05;41.58;;;25.70;;
4650;SDS011;2338;49.602;8.722;2023-02-11T10:59:54;38.30;;;24.93;;
4650;SDS011;2338;49.602;8.722;2023-02-11T11:02:43;40.80;;;25.17;;
4650;SDS011;2338;49.602;8.722;2023-02-11T11:05:30;42.53;;;25.93;;
4650;SDS011;2338;49.602;8.722;2023-02-11T11:08:18;40.03;;;25.37;;
4650;SDS011;2338;49.602;8.722;2023-02-11T11:11:05;40.53;;;26.23;;
4650;SDS011;2338;49.602;8.722;2023-02-11T11:13:55;39.50;;;25.87;;
4650;SDS011;2338;49.602;8.722;2023-02-11T11:16:42;39.50;;;24.27;;
4650;SDS011;2338;49.602;8.722;2023-02-11T11:19:36;41.27;;;26.00;;
4650;SDS011;2338;49.602;8.722;2023-02-11T11:22:22;40.15;;;25.52;;
4650;SDS011;2338;49.602;8.722;2023-02-11T11:25:19;41.40;;;24.93;;
4650;SDS011;2338;49.602;8.722;2023-02-11T11:28:15;40.03;;;26.80;;
4650;SDS011;2338;49.602;8.722;2023-02-11T11:31:05;35.20;;;23.90;;
4650;SDS011;2338;49.602;8.722;2023-02-11T11:33:58;46.70;;;28.10;;
4650;SDS011;2338;49.602;8.722;2023-02-11T11:36:45;40.20;;;25.87;;
4650;SDS011;2338;49.602;8.722;2023-02-11T11:39:31;40.80;;;24.50;;
4650;SDS011;2338;49.602;8.722;2023-02-11T11:42:23;40.37;;;25.00;;
4650;SDS011;2338;49.602;8.722;2023-02-11T11:45:17;37.05;;;23.08;;
4650;SDS011;2338;49.602;8.722;2023-02-11T11:48:11;60.17;;;24.97;;
4650;SDS011;2338;49.602;8.722;2023-02-11T11:51:04;41.13;;;26.50;;
4650;SDS011;2338;49.602;8.722;2023-02-11T11:53:55;37.15;;;24.75;;
4650;SDS011;2338;49.602;8.722;2023-02-11T11:56:46;40.70;;;25.83;;
4650;SDS011;2338;49.602;8.722;2023-02-11T11:59:38;44.90;;;26.97;;
4650;SDS011;2338;49.602;8.722;2023-02-11T12:02:34;39.60;;;25.40;;
4650;SDS011;2338;49.602;8.722;2023-02-11T12:05:34;42.30;;;23.60;;
4650;SDS011;2338;49.602;8.722;2023-02-11T12:08:27;43.17;;;26.80;;
4650;SDS011;2338;49.602;8.722;2023-02-11T12:11:21;39.90;;;24.03;;
4650;SDS011;2338;49.602;8.722;2023-02-11T12:14:18;34.83;;;23.70;;
4650;SDS011;2338;49.602;8.722;2023-02-11T12:17:14;40.67;;;24.60;;
4650;SDS011;2338;49.602;8.722;2023-02-11T12:20:13;37.37;;;24.80;;
4650;SDS011;2338;49.602;8.722;2023-02-11T12:26:22;38.77;;;24.10;;
4650;SDS011;2338;49.602;8.722;2023-02-11T12:29:15;34.53;;;22.93;;
4650;SDS011;2338;49.602;8.722;2023-02-11T12:32:16;39.03;;;24.67;;
4650;SDS011;2338;49.602;8.722;2023-02-11T12:35:22;34.87;;;21.73;;
4650;SDS011;2338;49.602;8.722;2023-02-11T12:38:20;38.10;;;25.77;;
4650;SDS011;2338;49.602;8.722;2023-02-11T12:41:29;39.55;;;24.10;;
4650;SDS011;2338;49.602;8.722;2023-02-11T12:44:46;39.37;;;24.80;;
4650;SDS011;2338;49.602;8.722;2023-02-11T12:47:46;41.10;;;24.90;;
4650;SDS011;2338;49.602;8.722;2023-02-11T12:50:45;40.70;;;24.57;;
4650;SDS011;2338;49.602;8.722;2023-02-11T12:53:43;38.20;;;23.43;;
4650;SDS011;2338;49.602;8.722;2023-02-11T12:56:55;41.77;;;26.67;;
4650;SDS011;2338;49.602;8.722;2023-02-11T12:59:49;40.13;;;23.43;;
4650;SDS011;2338;49.602;8.722;2023-02-11T13:02:41;37.40;;;23.93;;
4650;SDS011;2338;49.602;8.722;2023-02-11T13:05:32;43.83;;;26.47;;
4650;SDS011;2338;49.602;8.722;2023-02-11T13:08:24;44.97;;;26.47;;
4650;SDS011;2338;49.602;8.722;2023-02-11T13:11:14;39.80;;;23.60;;
4650;SDS011;2338;49.602;8.722;2023-02-11T13:14:03;41.70;;;24.23;;
4650;SDS011;2338;49.602;8.722;2023-02-11T13:16:51;38.33;;;23.27;;
4650;SDS011;2338;49.602;8.722;2023-02-11T13:19:40;42.20;;;26.00;;
4650;SDS011;2338;49.602;8.722;2023-02-11T13:22:33;45.83;;;23.77;;
4650;SDS011;2338;49.602;8.722;2023-02-11T13:25:26;42.57;;;26.57;;
4650;SDS011;2338;49.602;8.722;2023-02-11T13:28:24;42.13;;;24.50;;
4650;SDS011;2338;49.602;8.722;2023-02-11T13:31:19;40.33;;;24.57;;
4650;SDS011;2338;49.602;8.722;2023-02-11T13:34:22;38.17;;;24.07;;
4650;SDS011;2338;49.602;8.722;2023-02-11T13:37:12;36.70;;;23.47;;
4650;SDS011;2338;49.602;8.722;2023-02-11T13:40:06;42.37;;;23.10;;
4650;SDS011;2338;49.602;8.722;2023-02-11T13:43:05;35.87;;;23.20;;
4650;SDS011;2338;49.602;8.722;2023-02-11T13:46:07;38.73;;;24.23;;
4650;SDS011;2338;49.602;8.722;2023-02-11T13:48:54;44.53;;;27.10;;
4650;SDS011;2338;49.602;8.722;2023-02-11T13:51:41;40.80;;;26.90;;
4650;SDS011;2338;49.602;8.722;2023-02-11T13:54:28;39.17;;;25.00;;
4650;SDS011;2338;49.602;8.722;2023-02-11T14:03:36;40.20;;;23.13;;
4650;SDS011;2338;49.602;8.722;2023-02-11T14:06:40;35.23;;;23.33;;
4650;SDS011;2338;49.602;8.722;2023-02-11T14:10:47;36.33;;;24.50;;
4650;SDS011;2338;49.602;8.722;2023-02-11T14:13:33;33.43;;;22.07;;
4650;SDS011;2338;49.602;8.722;2023-02-11T14:16:20;38.73;;;23.60;;
4650;SDS011;2338;49.602;8.722;2023-02-11T14:19:09;41.17;;;25.03;;
4650;SDS011;2338;49.602;8.722;2023-02-11T14:21:54;33.73;;;22.70;;
4650;SDS011;2338;49.602;8.722;2023-02-11T14:24:48;34.13;;;21.90;;
4650;SDS011;2338;49.602;8.722;2023-02-11T14:27:39;32.43;;;21.43;;
4650;SDS011;2338;49.602;8.722;2023-02-11T14:36:59;35.90;;;21.97;;
4650;SDS011;2338;49.602;8.722;2023-02-11T14:39:55;39.17;;;22.50;;
4650;SDS011;2338;49.602;8.722;2023-02-11T14:42:47;43.50;;;23.30;;
4650;SDS011;2338;49.602;8.722;2023-02-11T14:45:35;41.77;;;22.30;;
4650;SDS011;2338;49.602;8.722;2023-02-11T14:48:23;35.77;;;23.30;;
4650;SDS011;2338;49.602;8.722;2023-02-11T14:51:14;38.00;;;21.70;;
4650;SDS011;2338;49.602;8.722;2023-02-11T14:54:08;46.43;;;24.50;;
4650;SDS011;2338;49.602;8.722;2023-02-11T14:57:04;36.17;;;23.13;;
4650;SDS011;2338;49.602;8.722;2023-02-11T14:59:54;33.90;;;22.87;;
4650;SDS011;2338;49.602;8.722;2023-02-11T15:02:44;37.50;;;22.30;;
4650;SDS011;2338;49.602;8.722;2023-02-11T15:05:30;40.67;;;22.27;;
4650;SDS011;2338;49.602;8.722;2023-02-11T15:08:15;39.13;;;23.43;;
4650;SDS011;2338;49.602;8.722;2023-02-11T15:11:03;35.27;;;21.13;;
4650;SDS011;2338;49.602;8.722;2023-02-11T15:13:55;36.77;;;23.77;;
4650;SDS011;2338;49.602;8.722;2023-02-11T15:16:43;41.47;;;23.98;;
4650;SDS011;2338;49.602;8.722;2023-02-11T15:19:31;45.97;;;24.43;;
4650;SDS011;2338;49.602;8.722;2023-02-11T15:22:21;38.47;;;22.00;;
4650;SDS011;2338;49.602;8.722;2023-02-11T15:25:10;37.07;;;25.33;;
4650;SDS011;2338;49.602;8.722;2023-02-11T15:28:08;36.77;;;22.70;;
4650;SDS011;2338;49.602;8.722;2023-02-11T15:31:04;37.93;;;22.93;;
4650;SDS011;2338;49.602;8.722;2023-02-11T15:33:58;33.97;;;20.77;;
4650;SDS011;2338;49.602;8.722;2023-02-11T15:36:51;33.43;;;21.27;;
4650;SDS011;2338;49.602;8.722;2023-02-11T15:39:38;46.90;;;22.90;;
4650;SDS011;2338;49.602;8.722;2023-02-11T15:42:25;32.93;;;20.87;;
4650;SDS011;2338;49.602;8.722;2023-02-11T15:45:21;30.67;;;20.60;;
4650;SDS011;2338;49.602;8.722;2023-02-11T15:48:12;33.10;;;19.57;;
4650;SDS011;2338;49.602;8.722;2023-02-11T15:51:00;35.33;;;21.02;;
4650;SDS011;2338;49.602;8.722;2023-02-11T15:53:48;34.00;;;19.67;;
4650;SDS011;2338;49.602;8.722;2023-02-11T15:56:39;36.43;;;19.37;;
4650;SDS011;2338;49.602;8.722;2023-02-11T15:59:27;31.83;;;20.80;;
4650;SDS011;2338;49.602;8.722;2023-02-11T16:02:20;33.70;;;21.13;;
4650;SDS011;2338;49.602;8.722;2023-02-11T16:05:22;31.67;;;20.73;;
4650;SDS011;2338;49.602;8.722;2023-02-11T16:08:19;36.03;;;21.47;;
4650;SDS011;2338;49.602;8.722;2023-02-11T16:11:17;31.00;;;20.30;;
4650;SDS011;2338;49.602;8.722;2023-02-11T16:14:19;33.73;;;20.17;;
4650;SDS011;2338;49.602;8.722;2023-02-11T16:17:07;36.20;;;21.43;;
4650;SDS011;2338;49.602;8.722;2023-02-11T16:19:56;34.87;;;20.83;;
4650;SDS011;2338;49.602;8.722;2023-02-11T16:22:43;31.87;;;20.87;;
4650;SDS011;2338;49.602;8.722;2023-02-11T16:25:30;36.27;;;20.37;;
4650;SDS011;2338;49.602;8.722;2023-02-11T16:28:19;32.47;;;21.17;;
4650;SDS011;2338;49.602;8.722;2023-02-11T16:31:04;37.47;;;23.23;;
4650;SDS011;2338;49.602;8.722;2023-02-11T16:33:52;35.13;;;21.93;;
4650;SDS011;2338;49.602;8.722;2023-02-11T16:36:39;41.80;;;22.43;;
4650;SDS011;2338;49.602;8.722;2023-02-11T16:39:25;32.77;;;19.80;;
4650;SDS011;2338;49.602;8.722;2023-02-11T16:42:10;32.60;;;20.65;;
4650;SDS011;2338;49.602;8.722;2023-02-11T16:44:57;32.33;;;20.70;;
4650;SDS011;2338;49.602;8.722;2023-02-11T16:47:42;32.40;;;21.60;;
4650;SDS011;2338;49.602;8.722;2023-02-11T16:50:28;32.03;;;21.45;;
4650;SDS011;2338;49.602;8.722;2023-02-11T16:53:17;35.65;;;21.52;;
4650;SDS011;2338;49.602;8.722;2023-02-11T16:56:08;35.17;;;20.23;;
4650;SDS011;2338;49.602;8.722;2023-02-11T16:58:58;29.43;;;18.33;;
4650;SDS011;2338;49.602;8.722;2023-02-11T17:01:44;28.53;;;18.93;;
4650;SDS011;2338;49.602;8.722;2023-02-11T17:04:31;29.73;;;20.00;;
4650;SDS011;2338;49.602;8.722;2023-02-11T17:07:17;37.00;;;20.10;;
4650;SDS011;2338;49.602;8.722;2023-02-11T17:10:11;26.50;;;18.20;;
4650;SDS011;2338;49.602;8.722;2023-02-11T17:12:58;34.57;;;20.17;;
4650;SDS011;2338;49.602;8.722;2023-02-11T17:15:44;30.93;;;19.33;;
4650;SDS011;2338;49.602;8.722;2023-02-11T17:18:30;34.87;;;19.40;;
4650;SDS011;2338;49.602;8.722;2023-02-11T17:21:17;31.38;;;18.42;;